Time;durP1;ratioP1;P1;durP2;ratioP2;P2;SDS_P1;SDS_P2;PMS_P1;PMS_P2;Temp;Humidity;BMP_temperature;BMP_pressure;BME280_temperature;BME280_humidity;BME280_pressure;Samples;Min_cycle;Max_cycle;Signal;HPM_P1;HPM_P2
2023/09/07 00:01:26;;;;;;;;;;;18.00;99.90;;;;;;5013955;28;20085;-75
2023/09/07 00:03:52;;;;;;;0.25;0.25;;;18.00;99.90;;;;;;5015601;28;19961;-75
2023/09/07 00:06:17;;;;;;;;;;;17.90;99.90;;;;;;5016181;28;20137;-75
2023/09/07 00:08:44;;;;;;;0.20;0.20;;;17.90;99.90;;;;;;5015624;28;19925;-75
2023/09/07 00:11:10;;;;;;;0.20;0.20;;;17.80;99.90;;;;;;5015170;28;20484;-75
2023/09/07 00:13:35;;;;;;;;;;;17.80;99.90;;;;;;5016486;28;20045;-75
2023/09/07 00:16:03;;;;;;;0.30;0.30;;;17.80;99.90;;;;;;5015591;28;20355;-75
2023/09/07 00:18:29;;;;;;;0.30;0.30;;;17.80;99.90;;;;;;5015399;28;20073;-74
2023/09/07 00:20:55;;;;;;;0.20;0.20;;;17.70;99.90;;;;;;5015646;28;20144;-76
2023/09/07 00:23:21;;;;;;;;;;;17.70;99.90;;;;;;5014612;28;20489;-73
2023/09/07 00:25:46;;;;;;;;;;;17.60;99.90;;;;;;5015815;28;19929;-73
2023/09/07 00:28:12;;;;;;;;;;;17.60;99.90;;;;;;5015693;28;20326;-73
2023/09/07 00:30:39;;;;;;;;;;;17.60;99.90;;;;;;5047817;28;19922;-74
2023/09/07 00:33:05;;;;;;;;;;;17.50;99.90;;;;;;5016005;28;19922;-74
2023/09/07 00:35:30;;;;;;;;;;;17.50;99.90;;;;;;5015679;28;19944;-74
2023/09/07 00:37:56;;;;;;;;;;;17.50;99.90;;;;;;5015863;28;19972;-74
2023/09/07 00:40:22;;;;;;;;;;;17.40;99.90;;;;;;5015467;28;20278;-74
2023/09/07 00:42:47;;;;;;;;;;;17.40;99.90;;;;;;5013937;28;19925;-74
2023/09/07 00:45:13;;;;;;;;;;;17.40;99.90;;;;;;5015357;28;19921;-74
2023/09/07 00:47:38;;;;;;;;;;;17.40;99.90;;;;;;5047314;28;20346;-74
2023/09/07 00:50:04;;;;;;;;;;;17.30;99.90;;;;;;5015348;28;19921;-74
2023/09/07 00:52:31;;;;;;;;;;;17.30;99.90;;;;;;5014249;28;19922;-74
2023/09/07 00:54:56;;;;;;;;;;;17.30;99.90;;;;;;5015146;28;20405;-74
2023/09/07 00:57:22;;;;;;;;;;;17.30;99.90;;;;;;5015159;28;19921;-74
2023/09/07 00:59:47;;;;;;;;;;;17.20;99.90;;;;;;5014975;28;20407;-74
2023/09/07 01:02:13;;;;;;;;;;;17.20;99.90;;;;;;5015691;28;19928;-73
2023/09/07 01:04:38;;;;;;;;;;;17.10;99.90;;;;;;5014529;28;19957;-74
2023/09/07 01:07:24;;;;;;;;;;;17.10;99.90;;;;;;5014969;28;20390;-74
2023/09/07 01:09:52;;;;;;;;;;;17.00;99.90;;;;;;4997229;28;19921;-74
2023/09/07 01:12:18;;;;;;;;;;;17.00;99.90;;;;;;5014365;28;19925;-74
2023/09/07 01:14:43;;;;;;;;;;;17.00;99.90;;;;;;5015419;28;20016;-74
2023/09/07 01:17:10;;;;;;;;;;;16.90;99.90;;;;;;5015320;28;20335;-75
2023/09/07 01:19:35;;;;;;;;;;;16.90;99.90;;;;;;5029946;28;19921;-74
2023/09/07 01:22:01;;;;;;;;;;;16.90;99.90;;;;;;5014488;28;19990;-74
2023/09/07 01:24:29;;;;;;;;;;;16.90;99.90;;;;;;5013405;28;19921;-74
2023/09/07 01:26:56;;;;;;;;;;;16.80;99.90;;;;;;5015008;28;19952;-74
2023/09/07 01:29:22;;;;;;;;;;;16.80;99.90;;;;;;5014859;28;19921;-74
2023/09/07 01:31:48;;;;;;;;;;;16.70;99.90;;;;;;5014633;28;19925;-74
2023/09/07 01:34:14;;;;;;;;;;;16.70;99.90;;;;;;5014648;28;20348;-74
2023/09/07 01:36:40;;;;;;;;;;;16.70;99.90;;;;;;5015174;28;19929;-74
2023/09/07 01:39:06;;;;;;;;;;;16.60;99.90;;;;;;5013752;28;20281;-74
2023/09/07 01:41:33;;;;;;;;;;;16.60;99.90;;;;;;5014739;28;19921;-74
2023/09/07 01:43:58;;;;;;;;;;;16.50;99.90;;;;;;5048045;28;20032;-74
2023/09/07 01:46:24;;;;;;;;;;;16.50;99.90;;;;;;5014459;28;19973;-74
2023/09/07 01:48:50;;;;;;;;;;;16.40;99.90;;;;;;5013907;28;19992;-74
2023/09/07 01:51:15;;;;;;;;;;;16.40;99.90;;;;;;5014773;28;20350;-74
2023/09/07 01:53:41;;;;;;;;;;;16.40;99.90;;;;;;5047073;28;19921;-74
2023/09/07 01:56:07;;;;;;;;;;;16.30;99.90;;;;;;5013961;28;19929;-74
2023/09/07 01:58:33;;;;;;;;;;;16.30;99.90;;;;;;5014983;28;19921;-74
2023/09/07 02:00:58;;;;;;;;;;;16.30;99.90;;;;;;5014236;28;20020;-74
2023/09/07 02:03:24;;;;;;;;;;;16.20;99.90;;;;;;5014451;28;19968;-74
2023/09/07 02:05:50;;;;;;;;;;;16.20;99.90;;;;;;5014115;28;19963;-74
2023/09/07 02:08:15;;;;;;;;;;;16.20;99.90;;;;;;5014537;28;19921;-74
2023/09/07 02:10:41;;;;;;;;;;;16.10;99.90;;;;;;5013177;28;19905;-75
2023/09/07 02:13:06;;;;;;;;;;;16.10;99.90;;;;;;5013176;28;20388;-74
2023/09/07 02:15:33;;;;;;;;;;;16.10;99.90;;;;;;5014131;28;19968;-74
2023/09/07 02:17:58;;;;;;;;;;;16.10;99.90;;;;;;5013045;28;20334;-74
2023/09/07 02:20:24;;;;;;;;;;;15.40;99.90;;;;;;5046943;28;19968;-74
2023/09/07 02:22:50;;;;;;;;;;;16.00;99.90;;;;;;5014738;28;20348;-74
2023/09/07 02:25:15;;;;;;;;;;;15.90;99.90;;;;;;5016697;28;19921;-74
2023/09/07 02:27:41;;;;;;;;;;;15.90;99.90;;;;;;5017831;28;20403;-74
2023/09/07 02:30:07;;;;;;;;;;;15.90;99.90;;;;;;5017868;28;20373;-74
2023/09/07 02:32:32;;;;;;;;;;;15.80;99.90;;;;;;5017728;28;19922;-74
2023/09/07 02:34:58;;;;;;;;;;;15.80;99.90;;;;;;5017821;28;19921;-74
2023/09/07 02:37:24;;;;;;;;;;;15.80;99.90;;;;;;5017342;28;19921;-74
2023/09/07 02:39:50;;;;;;;;;;;15.70;99.90;;;;;;5016755;28;20343;-74
2023/09/07 02:42:16;;;;;;;;;;;15.70;99.90;;;;;;5017845;28;19976;-74
2023/09/07 02:44:41;;;;;;;;;;;15.70;99.90;;;;;;5018359;28;19965;-74
2023/09/07 02:47:07;;;;;;;;;;;15.60;99.90;;;;;;5017554;28;19931;-74
2023/09/07 02:49:32;;;;;;;;;;;15.60;99.90;;;;;;5032846;28;19959;-74
2023/09/07 02:51:58;;;;;;;;;;;15.60;99.90;;;;;;5017831;28;20289;-73
2023/09/07 02:54:24;;;;;;;;;;;15.50;99.90;;;;;;5049703;28;20025;-73
2023/09/07 02:56:49;;;;;;;;;;;15.50;99.90;;;;;;5016925;28;19921;-73
2023/09/07 02:59:15;;;;;;;;;;;15.50;99.90;;;;;;5049151;28;19921;-73
2023/09/07 03:01:40;;;;;;;;;;;15.50;99.90;;;;;;5017415;28;19921;-73
2023/09/07 03:04:07;;;;;;;;;;;15.50;99.90;;;;;;5017701;28;20055;-73
2023/09/07 03:06:32;;;;;;;;;;;15.40;99.90;;;;;;5017840;28;20365;-74
2023/09/07 03:08:58;;;;;;;;;;;15.30;99.90;;;;;;5017071;28;19972;-73
2023/09/07 03:11:24;;;;;;;;;;;15.30;99.90;;;;;;5017146;28;19922;-73
2023/09/07 03:13:49;;;;;;;;;;;15.30;99.90;;;;;;5032802;28;19921;-73
2023/09/07 03:16:15;;;;;;;;;;;15.30;99.90;;;;;;5049195;28;19980;-73
2023/09/07 03:18:40;;;;;;;;;;;15.20;99.90;;;;;;5016926;28;19921;-74
2023/09/07 03:21:06;;;;;;;;;;;15.20;99.90;;;;;;5016212;28;20302;-73
2023/09/07 03:23:32;;;;;;;;;;;15.20;99.90;;;;;;5016200;28;19921;-73
2023/09/07 03:25:58;;;;;;;;;;;15.10;99.90;;;;;;5017253;28;19933;-74
2023/09/07 03:28:25;;;;;;;;;;;15.10;99.90;;;;;;5017916;28;19921;-74
2023/09/07 03:30:51;;;;;;;;;;;15.10;99.90;;;;;;5016022;28;20024;-74
2023/09/07 03:33:16;;;;;;;;;;;15.10;99.90;;;;;;5016601;28;19927;-74
2023/09/07 03:35:42;;;;;;;;;;;15.10;99.90;;;;;;5016445;28;19921;-74
2023/09/07 03:38:08;;;;;;;;;;;15.00;99.90;;;;;;5049279;28;19928;-74
2023/09/07 03:40:34;;;;;;;;;;;15.00;99.90;;;;;;5048813;28;19922;-74
2023/09/07 03:42:59;;;;;;;;;;;15.00;99.90;;;;;;5015924;28;19991;-74
2023/09/07 03:45:25;;;;;;;;;;;15.00;99.90;;;;;;5016954;28;19921;-74
2023/09/07 03:47:50;;;;;;;;;;;15.00;99.90;;;;;;5016239;28;20333;-74
2023/09/07 03:50:16;;;;;;;;;;;15.00;99.90;;;;;;5015729;28;19921;-74
2023/09/07 03:52:41;;;;;;;;;;;14.90;99.90;;;;;;5016568;28;19929;-74
2023/09/07 03:55:07;;;;;;;;;;;14.90;99.90;;;;;;5048431;28;20361;-74
2023/09/07 03:57:33;;;;;;;;;;;14.90;99.90;;;;;;5016344;28;19921;-74
2023/09/07 03:59:59;;;;;;;;;;;14.90;99.90;;;;;;5016111;28;20026;-74
2023/09/07 04:02:25;;;;;;;;;;;14.90;99.90;;;;;;5016085;28;19984;-74
2023/09/07 04:04:51;;;;;;;;;;;14.80;99.90;;;;;;5048035;28;19921;-74
2023/09/07 04:07:17;;;;;;;;;;;14.80;99.90;;;;;;5031575;28;19925;-74
2023/09/07 04:09:43;;;;;;;;;;;14.80;99.90;;;;;;5014346;28;19921;-74
2023/09/07 04:12:10;;;;;;;;;;;14.80;99.90;;;;;;5016097;28;19953;-74
2023/09/07 04:14:36;;;;;;;;;;;14.80;99.90;;;;;;5014848;28;19921;-74
2023/09/07 04:17:01;;;;;;;;;;;14.70;99.90;;;;;;5016200;28;19936;-74
2023/09/07 04:19:27;;;;;;;;;;;14.70;99.90;;;;;;5016015;28;19925;-74
2023/09/07 04:21:52;;;;;;;;;;;14.70;99.90;;;;;;5015863;28;19928;-74
2023/09/07 04:24:18;;;;;;;;;;;14.60;99.90;;;;;;5015470;28;20428;-74
2023/09/07 04:26:43;;;;;;;;;;;14.60;99.90;;;;;;5015449;28;19929;-73
2023/09/07 04:29:10;;;;;;;;;;;14.60;99.90;;;;;;5015820;28;19977;-74
2023/09/07 04:31:36;;;;;;;;;;;14.60;99.90;;;;;;5015632;28;19933;-74
2023/09/07 04:34:02;;;;;;;;;;;14.60;99.90;;;;;;5015584;28;19918;-74
2023/09/07 04:36:28;;;;;;;;;;;14.60;99.90;;;;;;5014759;28;19971;-73
2023/09/07 04:38:54;;;;;;;;;;;14.50;99.90;;;;;;5015145;28;19966;-74
2023/09/07 04:41:19;;;;;;;;;;;14.50;99.90;;;;;;5014587;28;19928;-74
2023/09/07 04:43:45;;;;;;;;;;;14.50;99.90;;;;;;5014692;28;19922;-73
2023/09/07 04:46:11;;;;;;;;;;;14.50;99.90;;;;;;5045758;28;19928;-73
2023/09/07 04:48:37;;;;;;;;;;;14.50;99.90;;;;;;5013842;28;19929;-74
2023/09/07 04:51:03;;;;;;;;;;;14.40;99.90;;;;;;5014550;28;19918;-74
2023/09/07 04:53:30;;;;;;;;;;;14.40;99.90;;;;;;5015142;28;20001;-74
2023/09/07 04:55:56;;;;;;;;;;;14.40;99.90;;;;;;5047232;28;19921;-74
2023/09/07 04:58:22;;;;;;;;;;;14.40;99.90;;;;;;5015623;28;20263;-74
2023/09/07 05:00:47;;;;;;;;;;;14.40;99.90;;;;;;5015234;28;19925;-76
2023/09/07 05:03:13;;;;;;;;;;;14.40;99.90;;;;;;5030252;28;19948;-75
2023/09/07 05:05:39;;;;;;;;;;;14.40;99.90;;;;;;5014595;28;19972;-74
2023/09/07 05:08:05;;;;;;;;;;;14.30;99.90;;;;;;5014497;28;19942;-73
2023/09/07 05:10:34;;;;;;;;;;;14.30;99.90;;;;;;5015071;28;19937;-74
2023/09/07 05:12:59;;;;;;;;;;;14.30;99.90;;;;;;5015507;28;19929;-74
2023/09/07 05:15:26;;;;;;;;;;;14.30;99.90;;;;;;5015241;28;19921;-74
2023/09/07 05:17:51;;;;;;;;;;;14.30;99.90;;;;;;5014659;28;19929;-75
2023/09/07 05:20:17;;;;;;;;;;;14.30;99.90;;;;;;5014519;28;19925;-74
2023/09/07 05:22:43;;;;;;;;;;;14.30;99.90;;;;;;5015261;28;19944;-74
2023/09/07 05:25:09;;;;;;;;;;;14.40;99.90;;;;;;5030106;28;19921;-74
2023/09/07 05:27:35;;;;;;;;;;;14.40;99.90;;;;;;5014909;28;20362;-75
2023/09/07 05:30:01;;;;;;;;;;;14.40;99.90;;;;;;5014512;28;19921;-74
2023/09/07 05:32:26;;;;;;;;;;;14.40;99.90;;;;;;5015047;28;19921;-74
2023/09/07 05:34:52;;;;;;;;;;;14.50;99.90;;;;;;5014554;28;20415;-74
2023/09/07 05:37:17;;;;;;;;;;;14.60;99.90;;;;;;5013520;28;20008;-74
2023/09/07 05:39:43;;;;;;;;;;;14.50;99.90;;;;;;5013333;28;19925;-74
2023/09/07 05:42:08;;;;;;;;;;;14.60;99.90;;;;;;5013925;28;20406;-74
2023/09/07 05:44:35;;;;;;;;;;;14.70;99.90;;;;;;5014516;28;19921;-74
2023/09/07 05:47:02;;;;;;;;;;;14.80;99.90;;;;;;5014519;28;19944;-74
2023/09/07 05:49:27;;;;;;;;;;;14.90;99.90;;;;;;5014418;28;19956;-74
2023/09/07 05:51:53;;;;;;;;;;;15.00;99.90;;;;;;5014286;28;19921;-74
2023/09/07 05:54:19;;;;;;;;;;;15.00;99.90;;;;;;5013145;28;19921;-75
2023/09/07 05:56:44;;;;;;;;;;;15.20;99.90;;;;;;5014300;28;19928;-74
2023/09/07 05:59:10;;;;;;;;;;;15.20;99.90;;;;;;5014705;28;20023;-75
2023/09/07 06:01:36;;;;;;;;;;;15.30;99.90;;;;;;5018588;28;20041;-74
2023/09/07 06:04:01;;;;;;;;;;;15.40;99.90;;;;;;5019015;28;19928;-75
2023/09/07 06:06:27;;;;;;;;;;;15.50;99.90;;;;;;5001277;28;20429;-75
2023/09/07 06:08:53;;;;;;;;;;;15.60;99.90;;;;;;5017328;28;19927;-75
2023/09/07 06:11:18;;;;;;;;;;;15.70;99.90;;;;;;5017666;28;20016;-75
2023/09/07 06:13:45;;;;;;;;;;;15.80;99.90;;;;;;5049348;28;20321;-74
2023/09/07 06:16:11;;;;;;;;;;;15.90;99.90;;;;;;5017125;28;20339;-74
2023/09/07 06:18:36;;;;;;;;;;;16.00;99.90;;;;;;5017912;28;19936;-75
2023/09/07 06:21:03;;;;;;;;;;;16.20;99.90;;;;;;5017269;28;19959;-74
2023/09/07 06:23:28;;;;;;;;;;;16.30;99.90;;;;;;5017150;28;19921;-74
2023/09/07 06:25:54;;;;;;;;;;;16.40;99.90;;;;;;5017184;28;19922;-74
2023/09/07 06:28:19;;;;;;;;;;;16.60;99.90;;;;;;5017236;28;19921;-74
2023/09/07 06:30:45;;;;;;;;;;;16.80;99.90;;;;;;5017206;28;19988;-74
2023/09/07 06:33:11;;;;;;;;;;;16.90;99.90;;;;;;5017090;28;19917;-75
2023/09/07 06:35:36;;;;;;;;;;;17.10;99.90;;;;;;5016495;28;19921;-75
2023/09/07 06:38:02;;;;;;;;;;;17.20;99.90;;;;;;5017396;28;19976;-75
2023/09/07 06:40:27;;;;;;;;;;;17.40;99.90;;;;;;5017480;28;20297;-75
2023/09/07 06:42:53;;;;;;;;;;;17.50;99.90;;;;;;5017378;28;19930;-75
2023/09/07 06:45:19;;;;;;;;;;;17.70;99.90;;;;;;5017041;28;19976;-75
2023/09/07 06:47:44;;;;;;;;;;;17.80;99.90;;;;;;5016692;28;19925;-75
2023/09/07 06:50:10;;;;;;;;;;;18.00;99.90;;;;;;5031296;28;19922;-75
2023/09/07 06:52:36;;;;;;;;;;;18.10;99.90;;;;;;5016565;28;19972;-75
2023/09/07 06:55:01;;;;;;;;;;;18.40;99.90;;;;;;5017233;28;19921;-74
2023/09/07 06:57:27;;;;;;;;;;;18.50;99.90;;;;;;5049213;28;19925;-74
2023/09/07 06:59:52;;;;;;;;;;;18.60;99.90;;;;;;5017356;28;20309;-75
2023/09/07 07:02:18;;;;;;;;;;;18.70;99.90;;;;;;5016562;28;19921;-75
2023/09/07 07:04:46;;;;;;;;;;;18.90;99.90;;;;;;5031738;28;19922;-75
2023/09/07 07:07:11;;;;;;;;;;;19.00;99.90;;;;;;5016651;28;19922;-75
2023/09/07 07:09:37;;;;;;;;;;;19.20;99.90;;;;;;5016611;28;19941;-75
2023/09/07 07:12:03;;;;;;;;;;;19.30;99.90;;;;;;5016321;28;19929;-75
2023/09/07 07:14:28;;;;;;;;;;;19.50;99.90;;;;;;5016182;28;19922;-75
2023/09/07 07:16:54;;;;;;;;;;;19.60;99.90;;;;;;5014593;28;19922;-75
2023/09/07 07:19:19;;;;;;;;;;;19.80;99.90;;;;;;5015400;28;19960;-75
2023/09/07 07:21:45;;;;;;;;;;;19.90;99.90;;;;;;5016151;28;20347;-75
2023/09/07 07:24:10;;;;;;;;;;;20.10;99.90;;;;;;5048130;28;19925;-75
2023/09/07 07:26:36;;;;;;;;;;;20.20;99.90;;;;;;5016050;28;19928;-76
2023/09/07 07:29:02;;;;;;;;;;;20.30;99.90;;;;;;5016157;28;20064;-76
2023/09/07 07:31:29;;;;;;;;;;;20.40;99.90;;;;;;5016128;28;19931;-75
2023/09/07 07:33:55;;;;;;;;;;;20.50;99.90;;;;;;5016217;28;19984;-76
2023/09/07 07:36:21;;;;;;;;;;;20.60;99.90;;;;;;5015883;28;20362;-76
2023/09/07 07:38:46;;;;;;;;;;;20.70;99.90;;;;;;5030977;28;20020;-75
2023/09/07 07:41:12;;;;;;;;;;;20.80;99.90;;;;;;5015445;28;20333;-75
2023/09/07 07:43:38;;;;;;;;;;;20.90;99.90;;;;;;5047595;28;19933;-75
2023/09/07 07:46:03;;;;;;;;;;;21.00;99.90;;;;;;5016039;28;19921;-75
2023/09/07 07:48:29;;;;;;;;;;;21.10;99.90;;;;;;5016125;28;19922;-75
2023/09/07 07:50:55;;;;;;;;;;;21.20;99.90;;;;;;5015857;28;19921;-75
2023/09/07 07:53:20;;;;;;;;;;;21.20;99.90;;;;;;5014511;28;19921;-75
2023/09/07 07:55:48;;;;;;;;;;;21.40;99.90;;;;;;5015467;28;19963;-75
2023/09/07 07:58:13;;;;;;;;;;;21.40;99.90;;;;;;5015586;28;19925;-75
2023/09/07 08:00:40;;;;;;;;;;;21.50;99.90;;;;;;5015420;28;19922;-76
2023/09/07 08:03:06;;;;;;;;;;;21.50;99.90;;;;;;5015106;28;20270;-76
2023/09/07 08:05:32;;;;;;;;;;;21.60;99.90;;;;;;5047100;28;19921;-77
2023/09/07 08:07:58;;;;;;;;;;;21.70;99.90;;;;;;5015150;28;19931;-76
2023/09/07 08:10:23;;;;;;;;;;;21.70;99.90;;;;;;5030695;28;20017;-76
2023/09/07 08:12:53;;;;;;;;;;;21.80;99.90;;;;;;5015291;28;20347;-77
2023/09/07 08:15:21;;;;;;;;;;;21.90;99.90;;;;;;5015516;28;19925;-76
2023/09/07 08:17:47;;;;;;;;;;;21.90;99.90;;;;;;5016044;28;19922;-76
2023/09/07 08:20:13;;;;;;;;;;;22.00;99.90;;;;;;5015278;28;19922;-77
2023/09/07 08:22:41;;;;;;;;;;;22.10;99.90;;;;;;5014639;28;19925;-77
2023/09/07 08:25:07;;;;;;;;;;;22.20;99.90;;;;;;5015309;28;19921;-77
2023/09/07 08:27:33;;;;;;;;;;;22.30;99.90;;;;;;5015252;28;19921;-76
2023/09/07 08:29:59;;;;;;;;;;;22.30;99.90;;;;;;5015226;28;19972;-77
2023/09/07 08:32:24;;;;;;;;;;;22.40;99.90;;;;;;5014275;28;20362;-76
2023/09/07 08:34:50;;;;;;;;;;;22.50;99.90;;;;;;5013934;28;20418;-77
2023/09/07 08:37:16;;;;;;;;;;;22.60;99.90;;;;;;5014739;28;19929;-77
2023/09/07 08:39:41;;;;;;;;;;;22.60;99.90;;;;;;5015268;28;19977;-77
2023/09/07 08:42:07;;;;;;;;;;;22.70;99.90;;;;;;5015799;28;19945;-76
2023/09/07 08:44:33;;;;;;;;;;;22.70;99.90;;;;;;5014164;28;20380;-76
2023/09/07 08:47:01;;;;;;;;;;;22.90;99.90;;;;;;5015149;28;19925;-76
2023/09/07 08:49:27;;;;;;;;;;;22.90;99.90;;;;;;5046263;28;20445;-75
2023/09/07 08:51:53;;;;;;;;;;;23.00;99.90;;;;;;5014805;28;19965;-76
2023/09/07 08:54:19;;;;;;;;;;;23.00;99.90;;;;;;5014595;28;19929;-76
2023/09/07 08:56:45;;;;;;;;;;;23.10;99.90;;;;;;5014506;28;19922;-76
2023/09/07 08:59:10;;;;;;;;;;;23.20;99.90;;;;;;5015032;28;20016;-77
2023/09/07 09:01:37;;;;;;;;;;;23.20;99.90;;;;;;5014343;28;20027;-76
2023/09/07 09:04:02;;;;;;;;;;;23.30;99.90;;;;;;5015151;28;19917;-77
2023/09/07 09:06:28;;;;;;;;;;;23.40;99.90;;;;;;5013125;28;19936;-76
2023/09/07 09:08:55;;;;;;;;;;;23.50;99.90;;;;;;5014073;28;20309;-76
2023/09/07 09:11:22;;;;;;;;;;;23.50;99.90;;;;;;5046077;28;19921;-76
2023/09/07 09:13:48;;;;;;;;;;;23.60;99.90;;;;;;5014531;28;20085;-76
2023/09/07 09:16:13;;;;;;;;;;;23.70;99.90;;;;;;5014802;28;19921;-76
2023/09/07 09:18:52;;;;;;;;;;;23.80;99.90;;;;;;5014336;28;19928;-76
2023/09/07 09:21:27;;;;;;;;;;;23.90;99.90;;;;;;5014356;28;19921;-76
2023/09/07 09:23:54;;;;;;;;;;;23.90;99.90;;;;;;5014090;28;19929;-76
2023/09/07 09:26:20;;;;;;;;;;;24.00;99.90;;;;;;5012991;28;20310;-76
2023/09/07 09:28:46;;;;;;;;;;;24.10;99.90;;;;;;5014325;28;19940;-75
2023/09/07 09:31:14;;;;;;;;;;;24.20;99.90;;;;;;5013903;28;19928;-76
2023/09/07 09:33:40;;;;;;;;;;;24.20;99.90;;;;;;5014210;28;19977;-76
2023/09/07 09:36:06;;;;;;;;;;;24.30;99.90;;;;;;5012730;28;19936;-76
2023/09/07 09:38:32;;;;;;;;;;;24.40;99.90;;;;;;5013310;28;19921;-75
2023/09/07 09:40:58;;;;;;;;;;;24.50;99.90;;;;;;5013268;28;20297;-75
2023/09/07 09:43:25;;;;;;;;;;;24.60;99.90;;;;;;5013646;28;19964;-76
2023/09/07 09:45:52;;;;;;;;;;;24.60;99.90;;;;;;5013578;28;20023;-76
2023/09/07 09:48:18;;;;;;;;;;;24.70;99.90;;;;;;5014105;28;19928;-75
2023/09/07 09:50:45;;;;;;;;;;;24.80;99.90;;;;;;5013569;28;19925;-76
2023/09/07 09:53:15;;;;;;;;;;;24.90;99.90;;;;;;5013384;28;19921;-76
2023/09/07 09:55:47;;;;;;;;;;;24.90;99.90;;;;;;5045342;28;19921;-76
2023/09/07 09:58:13;;;;;;;;;;;25.00;99.90;;;;;;5013171;28;20392;-77
2023/09/07 10:00:41;;;;;;;;;;;25.10;99.90;;;;;;5013338;28;19929;-76
2023/09/07 10:03:11;;;;;;;;;;;24.90;99.90;;;;;;5014111;28;20017;-77
2023/09/07 10:05:37;;;;;;;;;;;25.20;99.90;;;;;;5013392;28;19928;-76
2023/09/07 10:08:11;;;;;;;;;;;25.30;99.90;;;;;;5013429;28;20243;-75
2023/09/07 10:10:38;;;;;;;;;;;25.40;99.90;;;;;;5013204;28;19922;-76
2023/09/07 10:13:04;;;;;;;;;;;25.40;99.90;;;;;;5013293;28;19921;-77
2023/09/07 10:15:31;;;;;;;;;;;25.50;99.90;;;;;;5013171;28;19929;-77
2023/09/07 10:18:03;;;;;;;;;;;25.50;99.90;;;;;;5013653;28;20255;-77
2023/09/07 10:20:29;;;;;;;;;;;25.60;99.90;;;;;;5011842;28;19925;-76
2023/09/07 10:23:04;;;;;;;;;;;25.70;99.90;;;;;;5011151;28;19972;-76
2023/09/07 10:25:30;;;;;;;;;;;25.80;99.90;;;;;;5012825;28;19961;-76
2023/09/07 10:27:55;;;;;;;;;;;25.90;99.90;;;;;;5013505;28;19944;-76
2023/09/07 10:30:23;;;;;;;;;;;26.00;99.90;;;;;;5013496;28;19922;-76
2023/09/07 10:32:49;;;;;;;;;;;26.10;99.90;;;;;;5028648;28;19969;-76
2023/09/07 10:35:15;;;;;;;;;;;26.20;99.90;;;;;;5045034;28;19932;-76
2023/09/07 10:37:42;;;;;;;;;;;26.30;99.90;;;;;;5012340;28;19921;-76
2023/09/07 10:40:11;;;;;;;;;;;26.30;99.90;;;;;;5012616;28;19932;-76
2023/09/07 10:42:37;;;;;;;;;;;26.30;99.90;;;;;;5012340;28;20258;-75
2023/09/07 10:45:10;;;;;;;;;;;26.40;99.90;;;;;;5012394;28;19928;-76
2023/09/07 10:47:40;;;;;;;;;;;26.40;99.90;;;;;;5015479;28;19933;-75
2023/09/07 10:50:06;;;;;;;;;;;26.50;99.90;;;;;;5015533;28;19957;-76
2023/09/07 10:52:33;;;;;;;;;;;26.50;99.90;;;;;;5015418;28;20044;-76
2023/09/07 10:54:59;;;;;;;;;;;26.50;99.90;;;;;;5016123;28;19921;-75
2023/09/07 10:57:24;;;;;;;;;;;26.60;99.90;;;;;;5017074;28;19928;-76
2023/09/07 10:59:50;;;;;;;;;;;26.60;99.90;;;;;;5017043;28;19922;-76
2023/09/07 11:02:15;;;;;;;;;;;26.70;99.90;;;;;;5049073;28;20386;-76
2023/09/07 11:04:41;;;;;;;;;;;26.70;99.90;;;;;;5047949;28;19921;-75
2023/09/07 11:07:07;;;;;;;;;;;26.80;99.90;;;;;;5016465;28;20008;-76
2023/09/07 11:09:32;;;;;;;;;;;26.80;99.90;;;;;;5016355;28;20308;-76
2023/09/07 11:12:05;;;;;;;;;;;26.90;99.90;;;;;;5016490;28;20378;-76
2023/09/07 11:14:30;;;;;;;;;;;26.90;99.90;;;;;;5016405;28;19921;-76
2023/09/07 11:16:56;;;;;;;;;;;26.90;99.90;;;;;;5015944;28;19921;-76
2023/09/07 11:19:22;;;;;;;;;;;27.00;99.90;;;;;;5016348;28;20020;-76
2023/09/07 11:21:48;;;;;;;;;;;27.10;99.90;;;;;;5016295;28;19932;-76
2023/09/07 11:24:13;;;;;;;;;;;27.10;99.90;;;;;;5016269;28;20254;-75
2023/09/07 11:26:43;;;;;;;;;;;27.20;99.40;;;;;;5016566;28;19917;-76
2023/09/07 11:29:08;;;;;;;;;;;27.20;99.90;;;;;;5030923;28;20055;-76
2023/09/07 11:31:34;;;;;;;;;;;27.30;99.70;;;;;;5016169;28;19921;-76
2023/09/07 11:33:59;;;;;;;;;;;27.40;99.90;;;;;;5016068;28;19967;-76
2023/09/07 11:36:25;;;;;;;;;;;27.40;98.90;;;;;;5016053;28;19922;-76
2023/09/07 11:38:51;;;;;;;;;;;27.50;96.60;;;;;;5015544;28;20340;-76
2023/09/07 11:41:16;;;;;;;;;;;27.50;97.40;;;;;;5015494;28;19928;-76
2023/09/07 11:43:42;;;;;;;;;;;27.60;97.70;;;;;;5016142;28;19957;-75
2023/09/07 11:46:07;;;;;;;;;;;27.60;99.80;;;;;;5015194;28;19972;-76
2023/09/07 11:48:34;;;;;;;;;;;27.80;99.70;;;;;;5015573;28;19922;-75
2023/09/07 11:51:00;;;;;;;;;;;27.80;99.80;;;;;;5015179;28;19921;-76
2023/09/07 11:53:25;;;;;;;;;;;27.90;99.90;;;;;;5015488;28;19921;-77
2023/09/07 11:55:51;;;;;;;;;;;28.00;99.20;;;;;;5015798;28;19921;-76
2023/09/07 11:58:16;;;;;;;;;;;28.20;99.90;;;;;;5014648;28;19921;-76
2023/09/07 12:00:43;;;;;;;;;;;28.20;99.90;;;;;;5015296;28;19921;-75
2023/09/07 12:03:08;;;;;;;;;;;28.30;97.60;;;;;;5014871;28;20031;-76
2023/09/07 12:05:35;;;;;;;;;;;28.30;96.00;;;;;;5015178;28;19928;-75
2023/09/07 12:08:01;;;;;;;;;;;28.40;96.40;;;;;;5015723;28;19932;-76
2023/09/07 12:10:27;;;;;;;;;;;28.40;95.40;;;;;;5015156;28;19922;-76
2023/09/07 12:12:52;;;;;;;;;;;28.40;94.20;;;;;;5047050;28;19927;-76
2023/09/07 12:15:18;;;;;;;;;;;28.40;94.40;;;;;;5015648;28;19921;-75
2023/09/07 12:17:43;;;;;;;;;;;28.40;97.20;;;;;;5014943;28;19986;-76
2023/09/07 12:20:10;;;;;;;;;;;28.40;96.50;;;;;;5015224;28;19948;-76
2023/09/07 12:22:37;;;;;;;;;;;28.50;97.50;;;;;;5014985;28;19979;-77
2023/09/07 12:25:06;;;;;;;;;;;28.60;95.50;;;;;;5014845;28;19921;-77
2023/09/07 12:27:33;;;;;;;;;;;28.70;96.50;;;;;;5014932;28;19981;-76
2023/09/07 12:29:58;;;;;;;;;;;28.80;95.70;;;;;;5014644;28;19929;-76
2023/09/07 12:32:24;;;;;;;;;;;28.80;95.00;;;;;;5030118;28;20084;-77
2023/09/07 12:34:53;;;;;;;;;;;28.90;95.60;;;;;;5014206;28;19985;-76
2023/09/07 12:37:19;;;;;;;;;;;28.90;94.30;;;;;;5014306;28;19940;-76
2023/09/07 12:39:45;;;;;;;;;;;29.00;94.40;;;;;;5014978;28;20242;-76
2023/09/07 12:42:10;;;;;;;;;;;29.10;95.40;;;;;;5046511;28;20008;-76
2023/09/07 12:44:36;;;;;;;;;;;29.10;94.00;;;;;;5046597;28;19921;-76
2023/09/07 12:47:01;;;;;;;;;;;29.20;93.60;;;;;;5047184;28;19964;-76
2023/09/07 12:49:27;;;;;;;;;;;29.30;92.90;;;;;;5014160;28;19932;-77
2023/09/07 12:51:52;;;;;;;;;;;29.40;94.30;;;;;;5014397;28;19921;-77
2023/09/07 12:54:18;;;;;;;;;;;29.50;92.60;;;;;;5014367;28;19983;-76
2023/09/07 12:56:44;;;;;;;;;;;29.50;93.20;;;;;;5014080;28;19917;-76
2023/09/07 12:59:10;;;;;;;;;;;29.60;92.20;;;;;;5014680;28;20020;-77
2023/09/07 13:01:36;;;;;;;;;;;29.60;90.60;;;;;;5014656;28;19964;-77
2023/09/07 13:04:01;;;;;;;;;;;29.70;91.20;;;;;;5014594;28;20442;-77
2023/09/07 13:06:27;;;;;;;;;;;29.80;92.20;;;;;;5014467;28;19935;-77
2023/09/07 13:08:53;;;;;;;;;;;29.80;92.70;;;;;;5014102;28;19929;-77
2023/09/07 13:11:18;;;;;;;;;;;29.90;91.10;;;;;;5014160;28;20265;-77
2023/09/07 13:13:44;;;;;;;;;;;30.10;91.30;;;;;;5014052;28;19921;-77
2023/09/07 13:16:09;;;;;;;;;;;30.20;90.10;;;;;;5013871;28;19922;-75
2023/09/07 13:18:35;;;;;;;;;;;30.50;91.70;;;;;;5013379;28;20027;-76
2023/09/07 13:21:01;;;;;;;;;;;30.70;90.80;;;;;;5014021;28;19948;-76
2023/09/07 13:23:27;;;;;;;;;;;31.00;91.50;;;;;;5014054;28;20327;-77
2023/09/07 13:25:53;;;;;;;;;;;31.30;92.70;;;;;;5014141;28;19974;-77
2023/09/07 13:28:19;;;;;;;;;;;31.60;91.00;;;;;;5013873;28;19921;-77
2023/09/07 13:30:45;;;;;;;;;;;31.80;87.10;;;;;;5013899;28;19928;-77
2023/09/07 13:33:10;;;;;;;;;;;32.10;89.40;;;;;;5013397;28;19921;-76
2023/09/07 13:35:36;;;;;;;;;;;32.30;91.20;;;;;;5045629;28;20015;-77
2023/09/07 13:38:01;;;;;;;;;;;32.40;83.60;;;;;;5013545;28;20051;-76
2023/09/07 13:40:29;;;;;;;;;;;32.40;87.90;;;;;;5013484;28;19926;-77
2023/09/07 13:42:55;;;;;;;;;;;32.60;85.60;;;;;;5013483;28;19974;-77
2023/09/07 13:45:20;;;;;;;;;;;32.80;85.90;;;;;;5014069;28;19975;-77
2023/09/07 13:47:46;;;;;;;;;;;33.20;83.90;;;;;;5012839;28;20393;-77
2023/09/07 13:50:12;;;;;;;;;;;33.40;81.50;;;;;;5011868;28;19921;-77
2023/09/07 13:52:38;;;;;;;;;;;33.50;79.30;;;;;;5013072;28;20001;-78
2023/09/07 13:55:04;;;;;;;;;;;33.80;77.60;;;;;;5014070;28;19922;-78
2023/09/07 13:57:30;;;;;;;;;;;34.00;79.20;;;;;;5013273;28;19928;-77
2023/09/07 13:59:55;;;;;;;;;;;34.10;74.30;;;;;;5013317;28;19925;-78
2023/09/07 14:02:21;;;;;;;;;;;34.20;85.60;;;;;;5012943;28;19921;-77
2023/09/07 14:04:47;;;;;;;;;;;34.40;73.30;;;;;;5012866;28;19960;-77
2023/09/07 14:07:12;;;;;;;;;;;34.50;71.50;;;;;;5013294;28;20420;-77
2023/09/07 14:09:38;;;;;;;;;;;34.70;73.00;;;;;;5012973;28;20359;-78